Wetterdaten: Woche 25.06.18 - 01.07.18 (KW26)
Datum Zeit Temp. A. Pool Temp. Feuchte A. Luftdruck Regen Wind Richtung Sonnenschein ET UV Solar Taupunkt Windchill Windben Empfang
25.06.2018 00:00 12,4 C 20,6 C 93 % 1017,7 hPa 0,8 l/m 4,9 km/h (1 Bft) SO 0,00 h 0,000 mm 0,0 UV-I 0 W/m 11,3 C 12,3 C 6,8 km/h (2 Bft) 97,74 %
25.06.2018 01:00 12,0 C 20,6 C 94 % 1017,6 hPa 0,6 l/m 5,7 km/h (1 Bft) O-SO 0,00 h 0,000 mm 0,0 UV-I 0 W/m 11,1 C 11,5 C 8,4 km/h (2 Bft) 96,64 %
25.06.2018 02:00 11,4 C 20,6 C 95 % 1017,7 hPa 4,4 l/m 6,7 km/h (2 Bft) O-NO 0,00 h 0,000 mm 0,0 UV-I 0 W/m 10,6 C 10,9 C 9,1 km/h (2 Bft) 98,45 %
25.06.2018 03:00 10,8 C 20,0 C 95 % 1017,6 hPa 1,6 l/m 3,2 km/h (1 Bft) NO 0,00 h 0,000 mm 0,0 UV-I 0 W/m 10,1 C 10,5 C 4,6 km/h (1 Bft) 98,52 %
25.06.2018 04:00 10,9 C 20,0 C 96 % 1017,8 hPa 3,4 l/m 2,8 km/h (1 Bft) SO 0,00 h 0,000 mm 0,0 UV-I 0 W/m 10,3 C 10,9 C 4,4 km/h (1 Bft) 97,58 %
25.06.2018 05:00 10,8 C 20,0 C 96 % 1018,0 hPa 1,6 l/m 2,7 km/h (1 Bft) S-SO 0,00 h 0,000 mm 0,0 UV-I 8 W/m 10,1 C 10,7 C 4,6 km/h (1 Bft) 97,15 %
25.06.2018 06:00 10,7 C 20,0 C 96 % 1018,4 hPa 0,6 l/m 2,8 km/h (1 Bft) SO 0,00 h 0,000 mm 0,0 UV-I 32 W/m 10,0 C 10,7 C 4,5 km/h (1 Bft) 99,36 %
25.06.2018 07:00 10,9 C 20,0 C 95 % 1018,9 hPa 0,4 l/m 2,9 km/h (1 Bft) O 0,00 h 0,025 mm 0,0 UV-I 79 W/m 10,1 C 10,9 C 4,4 km/h (1 Bft) 97,98 %
25.06.2018 08:00 11,4 C 20,0 C 94 % 1019,3 hPa 0,0 l/m 3,2 km/h (1 Bft) O-NO 0,00 h 0,051 mm 0,5 UV-I 100 W/m 10,5 C 11,4 C 4,8 km/h (1 Bft) 96,83 %
25.06.2018 09:00 12,0 C 20,0 C 93 % 1019,6 hPa 0,0 l/m 1,8 km/h (1 Bft) SO 0,00 h 0,051 mm 1,0 UV-I 198 W/m 10,9 C 12,0 C 3,3 km/h (1 Bft) 97,60 %
25.06.2018 10:00 13,5 C 20,0 C 87 % 1019,8 hPa 0,0 l/m 3,3 km/h (1 Bft) S-SO 0,38 h 0,102 mm 2,2 UV-I 387 W/m 11,3 C 13,5 C 5,6 km/h (1 Bft) 99,41 %
25.06.2018 11:00 14,6 C 20,0 C 79 % 1020,3 hPa 0,0 l/m 2,4 km/h (1 Bft) NW 0,23 h 0,203 mm 2,7 UV-I 381 W/m 11,0 C 14,6 C 4,0 km/h (1 Bft) 98,04 %
25.06.2018 12:00 15,0 C 20,0 C 77 % 1020,7 hPa 0,0 l/m 3,9 km/h (1 Bft) W-SW 0,00 h 0,203 mm 2,3 UV-I 331 W/m 11,1 C 14,9 C 6,1 km/h (2 Bft) 98,09 %
25.06.2018 13:00 15,8 C 20,0 C 73 % 1020,6 hPa 0,0 l/m 4,7 km/h (1 Bft) W-SW 0,03 h 0,178 mm 2,7 UV-I 379 W/m 11,1 C 15,6 C 7,4 km/h (2 Bft) 95,69 %
25.06.2018 14:00 16,5 C 20,2 C 69 % 1020,7 hPa 0,0 l/m 5,7 km/h (1 Bft) W-SW 0,45 h 0,228 mm 3,1 UV-I 472 W/m 10,9 C 16,1 C 8,9 km/h (2 Bft) 98,48 %
25.06.2018 15:00 17,5 C 20,6 C 68 % 1020,7 hPa 0,0 l/m 6,9 km/h (2 Bft) SW 0,82 h 0,280 mm 3,2 UV-I 521 W/m 11,5 C 16,9 C 10,9 km/h (2 Bft) 97,66 %
25.06.2018 16:00 18,0 C 20,6 C 65 % 1020,5 hPa 0,0 l/m 8,7 km/h (2 Bft) W-SW 0,30 h 0,305 mm 2,3 UV-I 348 W/m 11,4 C 16,9 C 13,1 km/h (3 Bft) 99,47 %
25.06.2018 17:00 17,4 C 20,6 C 67 % 1020,4 hPa 0,0 l/m 7,1 km/h (2 Bft) W-SW 0,03 h 0,279 mm 0,6 UV-I 134 W/m 11,3 C 16,8 C 11,1 km/h (2 Bft) 96,85 %
25.06.2018 18:00 17,7 C 20,6 C 67 % 1020,3 hPa 0,0 l/m 9,3 km/h (2 Bft) SW 0,12 h 0,102 mm 0,7 UV-I 168 W/m 11,4 C 16,4 C 13,6 km/h (3 Bft) 97,43 %
25.06.2018 19:00 17,1 C 20,6 C 70 % 1020,3 hPa 0,0 l/m 9,7 km/h (2 Bft) W-SW 0,00 h 0,127 mm 0,0 UV-I 44 W/m 11,6 C 15,6 C 14,1 km/h (3 Bft) 97,72 %
25.06.2018 20:00 16,4 C 20,6 C 75 % 1020,5 hPa 0,0 l/m 6,7 km/h (2 Bft) SW 0,13 h 0,076 mm 0,0 UV-I 23 W/m 11,9 C 16,0 C 9,8 km/h (2 Bft) 99,00 %
25.06.2018 21:00 15,6 C 20,6 C 79 % 1020,9 hPa 0,0 l/m 6,3 km/h (2 Bft) SW 0,00 h 0,025 mm 0,0 UV-I 6 W/m 11,8 C 15,2 C 9,1 km/h (2 Bft) 96,59 %
25.06.2018 22:00 14,9 C 20,0 C 82 % 1021,3 hPa 0,0 l/m 6,2 km/h (2 Bft) SW 0,00 h 0,026 mm 0,0 UV-I 0 W/m 11,8 C 14,8 C 8,2 km/h (2 Bft) 97,77 %
25.06.2018 23:00 14,4 C 20,0 C 83 % 1021,3 hPa 0,0 l/m 7,1 km/h (2 Bft) SW 0,00 h 0,025 mm 0,0 UV-I 0 W/m 11,5 C 13,9 C 9,7 km/h (2 Bft) 97,82 %
26.06.2018 00:00 14,0 C 20,0 C 83 % 1021,2 hPa 0,0 l/m 6,2 km/h (2 Bft) SW 0,00 h 0,000 mm 0,0 UV-I 0 W/m 11,2 C 13,7 C 8,4 km/h (2 Bft) 98,78 %
26.06.2018 01:00 13,7 C 20,0 C 84 % 1021,1 hPa 0,0 l/m 4,9 km/h (1 Bft) SW 0,00 h 0,025 mm 0,0 UV-I 0 W/m 11,1 C 13,6 C 6,6 km/h (2 Bft) 95,94 %
26.06.2018 02:00 13,2 C 20,0 C 88 % 1020,9 hPa 0,0 l/m 4,2 km/h (1 Bft) SW 0,00 h 0,026 mm 0,0 UV-I 0 W/m 11,3 C 12,9 C 6,4 km/h (2 Bft) 98,40 %
26.06.2018 03:00 13,7 C 20,0 C 87 % 1020,4 hPa 0,0 l/m 6,4 km/h (2 Bft) W-SW 0,00 h 0,000 mm 0,0 UV-I 0 W/m 11,5 C 13,2 C 9,4 km/h (2 Bft) 97,51 %
26.06.2018 04:00 13,1 C 19,6 C 86 % 1020,1 hPa 0,0 l/m 4,4 km/h (1 Bft) SW 0,00 h 0,025 mm 0,0 UV-I 4 W/m 10,8 C 13,0 C 6,0 km/h (2 Bft) 99,09 %
26.06.2018 05:00 12,9 C 19,4 C 88 % 1020,3 hPa 0,0 l/m 4,2 km/h (1 Bft) S-SW 0,35 h 0,000 mm 0,0 UV-I 23 W/m 11,0 C 12,9 C 5,6 km/h (1 Bft) 95,36 %
26.06.2018 06:00 13,1 C 19,4 C 90 % 1020,5 hPa 0,0 l/m 5,1 km/h (1 Bft) SW 0,45 h 0,026 mm 0,0 UV-I 122 W/m 11,5 C 13,1 C 6,8 km/h (2 Bft) 99,15 %
26.06.2018 07:00 15,0 C 19,4 C 83 % 1020,7 hPa 0,0 l/m 7,6 km/h (2 Bft) W 1,00 h 0,076 mm 0,7 UV-I 306 W/m 12,2 C 14,2 C 11,2 km/h (2 Bft) 97,96 %
26.06.2018 08:00 16,6 C 19,7 C 76 % 1020,8 hPa 0,0 l/m 5,0 km/h (1 Bft) W-SW 1,00 h 0,178 mm 1,7 UV-I 475 W/m 12,3 C 16,3 C 7,8 km/h (2 Bft) 97,80 %
26.06.2018 09:00 18,0 C 20,0 C 68 % 1020,6 hPa 0,0 l/m 4,1 km/h (1 Bft) W-SW 1,00 h 0,279 mm 3,1 UV-I 629 W/m 12,1 C 17,9 C 6,7 km/h (2 Bft) 97,02 %
26.06.2018 10:00 19,0 C 20,0 C 63 % 1020,4 hPa 0,0 l/m 6,2 km/h (2 Bft) W-SW 0,83 h 0,356 mm 4,1 UV-I 664 W/m 11,8 C 18,7 C 9,8 km/h (2 Bft) 98,86 %
26.06.2018 11:00 20,1 C 20,5 C 55 % 1020,3 hPa 0,0 l/m 6,7 km/h (2 Bft) W 0,77 h 0,406 mm 5,4 UV-I 791 W/m 10,6 C 19,6 C 10,6 km/h (2 Bft) 97,88 %
26.06.2018 12:00 20,6 C 20,6 C 52 % 1020,0 hPa 0,0 l/m 7,1 km/h (2 Bft) W 0,35 h 0,483 mm 4,8 UV-I 567 W/m 10,4 C 20,1 C 11,1 km/h (2 Bft) 97,22 %
26.06.2018 13:00 21,6 C 21,0 C 47 % 1019,4 hPa 0,0 l/m 5,9 km/h (2 Bft) W 0,68 h 0,406 mm 5,8 UV-I 743 W/m 9,8 C 21,3 C 10,4 km/h (2 Bft) 97,57 %
26.06.2018 14:00 21,3 C 21,1 C 48 % 1019,0 hPa 0,0 l/m 6,7 km/h (2 Bft) W-NW 0,30 h 0,457 mm 3,7 UV-I 474 W/m 10,0 C 20,9 C 11,5 km/h (2 Bft) 98,90 %
26.06.2018 15:00 22,6 C 21,3 C 44 % 1018,6 hPa 0,0 l/m 9,7 km/h (2 Bft) W 0,85 h 0,356 mm 4,6 UV-I 729 W/m 9,5 C 21,6 C 15,2 km/h (3 Bft) 97,66 %
26.06.2018 16:00 22,7 C 21,7 C 44 % 1018,1 hPa 0,0 l/m 9,3 km/h (2 Bft) W-SW 0,68 h 0,533 mm 2,9 UV-I 567 W/m 10,0 C 21,8 C 15,6 km/h (3 Bft) 98,30 %
26.06.2018 17:00 22,8 C 21,7 C 44 % 1017,8 hPa 0,0 l/m 9,8 km/h (2 Bft) W 0,90 h 0,407 mm 1,9 UV-I 520 W/m 9,9 C 21,9 C 15,7 km/h (3 Bft) 96,21 %
26.06.2018 18:00 20,9 C 21,7 C 52 % 1017,9 hPa 0,0 l/m 5,8 km/h (2 Bft) N-NW 0,05 h 0,406 mm 0,7 UV-I 132 W/m 10,6 C 20,7 C 10,4 km/h (2 Bft) 98,84 %
26.06.2018 19:00 20,5 C 21,7 C 55 % 1017,8 hPa 0,0 l/m 3,0 km/h (1 Bft) W 0,02 h 0,127 mm 0,0 UV-I 91 W/m 11,2 C 20,5 C 5,2 km/h (1 Bft) 98,38 %
26.06.2018 20:00 17,5 C 21,7 C 73 % 1018,3 hPa 5,2 l/m 7,6 km/h (2 Bft) W-SW 0,05 h 0,076 mm 0,0 UV-I 14 W/m 12,3 C 16,5 C 11,1 km/h (2 Bft) 98,08 %
26.06.2018 21:00 14,9 C 21,7 C 90 % 1018,4 hPa 0,2 l/m 4,3 km/h (1 Bft) O 0,00 h 0,051 mm 0,0 UV-I 6 W/m 13,2 C 14,6 C 6,7 km/h (2 Bft) 96,39 %
26.06.2018 22:00 13,8 C 21,3 C 93 % 1019,2 hPa 0,0 l/m 9,4 km/h (2 Bft) O-NO 0,00 h 0,000 mm 0,0 UV-I 0 W/m 12,7 C 12,0 C 13,6 km/h (3 Bft) 98,62 %
26.06.2018 23:00 13,6 C 21,1 C 93 % 1019,5 hPa 0,0 l/m 6,1 km/h (2 Bft) O 0,00 h 0,000 mm 0,0 UV-I 0 W/m 12,5 C 13,1 C 8,6 km/h (2 Bft) 98,05 %
27.06.2018 00:00 13,3 C 21,1 C 95 % 1019,7 hPa 0,0 l/m 4,6 km/h (1 Bft) NO 0,00 h 0,000 mm 0,0 UV-I 0 W/m 12,5 C 12,9 C 6,4 km/h (2 Bft) 97,93 %
27.06.2018 01:00 13,3 C 21,1 C 96 % 1019,6 hPa 0,0 l/m 1,7 km/h (1 Bft) S-SW 0,00 h 0,000 mm 0,0 UV-I 0 W/m 12,7 C 13,3 C 2,6 km/h (1 Bft) 96,84 %
27.06.2018 02:00 13,3 C 21,1 C 96 % 1019,2 hPa 0,0 l/m 3,0 km/h (1 Bft) SW 0,00 h 0,000 mm 0,0 UV-I 0 W/m 12,7 C 13,3 C 4,4 km/h (1 Bft) 98,12 %
27.06.2018 03:00 13,4 C 21,1 C 96 % 1018,9 hPa 0,0 l/m 2,5 km/h (1 Bft) SW 0,00 h 0,000 mm 0,0 UV-I 0 W/m 12,7 C 13,4 C 3,9 km/h (1 Bft) 97,81 %
27.06.2018 04:00 13,4 C 20,7 C 96 % 1018,8 hPa 0,2 l/m 4,1 km/h (1 Bft) S-SW 0,00 h 0,000 mm 0,0 UV-I 5 W/m 12,7 C 13,3 C 6,2 km/h (2 Bft) 97,05 %
27.06.2018 05:00 13,2 C 20,6 C 96 % 1018,7 hPa 0,0 l/m 1,8 km/h (1 Bft) S-SW 0,42 h 0,000 mm 0,0 UV-I 27 W/m 12,6 C 13,2 C 3,1 km/h (1 Bft) 97,75 %
27.06.2018 06:00 13,5 C 20,6 C 95 % 1018,9 hPa 0,0 l/m 1,0 km/h (0 Bft) SW 0,00 h 0,025 mm 0,0 UV-I 51 W/m 12,8 C 13,5 C 2,0 km/h (1 Bft) 98,72 %
27.06.2018 07:00 14,0 C 20,6 C 94 % 1019,2 hPa 0,0 l/m 0,5 km/h (0 Bft) SW 0,00 h 0,026 mm 0,0 UV-I 59 W/m 13,1 C 14,0 C 1,5 km/h (1 Bft) 98,73 %
27.06.2018 08:00 15,5 C 20,6 C 86 % 1019,3 hPa 0,0 l/m 2,3 km/h (1 Bft) N 0,58 h 0,025 mm 1,2 UV-I 372 W/m 13,1 C 15,5 C 4,0 km/h (1 Bft) 96,07 %
27.06.2018 09:00 17,3 C 21,0 C 75 % 1019,2 hPa 0,0 l/m 6,3 km/h (2 Bft) N-NO 0,87 h 0,203 mm 2,5 UV-I 642 W/m 12,8 C 16,7 C 9,4 km/h (2 Bft) 98,24 %
27.06.2018 10:00 18,8 C 21,1 C 64 % 1019,0 hPa 0,0 l/m 10,1 km/h (2 Bft) N-NO 0,90 h 0,356 mm 3,8 UV-I 772 W/m 11,9 C 17,3 C 14,7 km/h (3 Bft) 98,05 %
27.06.2018 11:00 17,7 C 21,1 C 66 % 1018,8 hPa 0,0 l/m 10,3 km/h (2 Bft) N-NO 0,18 h 0,483 mm 1,9 UV-I 295 W/m 11,1 C 16,0 C 14,0 km/h (3 Bft) 98,74 %
27.06.2018 12:00 18,9 C 21,1 C 60 % 1018,8 hPa 0,0 l/m 18,8 km/h (3 Bft) NO 0,58 h 0,203 mm 4,2 UV-I 685 W/m 11,1 C 15,3 C 25,5 km/h (4 Bft) 95,57 %
27.06.2018 13:00 19,6 C 21,7 C 54 % 1018,6 hPa 0,0 l/m 17,5 km/h (3 Bft) N-NO 0,63 h 0,508 mm 4,4 UV-I 750 W/m 9,9 C 16,4 C 23,9 km/h (4 Bft) 98,84 %
27.06.2018 14:00 19,5 C 21,7 C 55 % 1018,4 hPa 0,0 l/m 13,2 km/h (3 Bft) NO 0,30 h 0,533 mm 3,3 UV-I 541 W/m 10,0 C 17,2 C 18,0 km/h (3 Bft) 98,01 %
27.06.2018 15:00 19,5 C 22,0 C 53 % 1018,3 hPa 0,0 l/m 11,2 km/h (2 Bft) NO 0,23 h 0,407 mm 1,9 UV-I 373 W/m 9,6 C 17,7 C 16,7 km/h (3 Bft) 98,49 %
27.06.2018 16:00 19,1 C 22,2 C 59 % 1018,4 hPa 0,0 l/m 9,0 km/h (2 Bft) O 0,60 h 0,304 mm 1,9 UV-I 411 W/m 11,0 C 18,1 C 13,3 km/h (3 Bft) 97,16 %
27.06.2018 17:00 19,1 C 22,2 C 60 % 1018,0 hPa 0,0 l/m 6,7 km/h (2 Bft) O 0,58 h 0,305 mm 1,4 UV-I 355 W/m 11,2 C 18,7 C 10,3 km/h (2 Bft) 96,40 %
27.06.2018 18:00 18,8 C 22,2 C 62 % 1018,0 hPa 0,2 l/m 5,6 km/h (1 Bft) N-NO 0,57 h 0,254 mm 1,0 UV-I 296 W/m 11,3 C 18,3 C 8,3 km/h (2 Bft) 98,73 %
27.06.2018 19:00 16,3 C 22,2 C 78 % 1018,2 hPa 0,0 l/m 2,2 km/h (1 Bft) W-NW 0,00 h 0,203 mm 0,0 UV-I 45 W/m 12,5 C 16,3 C 3,7 km/h (1 Bft) 97,77 %
27.06.2018 20:00 16,1 C 22,1 C 79 % 1018,3 hPa 0,0 l/m 6,5 km/h (2 Bft) W 0,00 h 0,026 mm 0,0 UV-I 19 W/m 12,5 C 15,8 C 10,3 km/h (2 Bft) 98,90 %
27.06.2018 21:00 15,5 C 21,7 C 78 % 1018,5 hPa 0,6 l/m 5,5 km/h (1 Bft) W 0,00 h 0,025 mm 0,0 UV-I 6 W/m 11,7 C 15,3 C 8,7 km/h (2 Bft) 95,64 %
27.06.2018 22:00 14,0 C 21,7 C 91 % 1019,1 hPa 2,0 l/m 3,0 km/h (1 Bft) N-NO 0,00 h 0,026 mm 0,0 UV-I 0 W/m 12,5 C 13,9 C 4,4 km/h (1 Bft) 98,11 %
27.06.2018 23:00 13,7 C 21,7 C 95 % 1019,0 hPa 3,0 l/m 3,5 km/h (1 Bft) W-SW 0,00 h 0,000 mm 0,0 UV-I 0 W/m 12,8 C 13,7 C 5,1 km/h (1 Bft) 97,70 %
28.06.2018 00:00 13,5 C 21,7 C 95 % 1018,9 hPa 0,2 l/m 6,8 km/h (2 Bft) W 0,00 h 0,000 mm 0,0 UV-I 0 W/m 12,8 C 13,0 C 10,2 km/h (2 Bft) 97,18 %
28.06.2018 01:00 13,3 C 21,2 C 96 % 1018,4 hPa 0,6 l/m 4,0 km/h (1 Bft) SW 0,00 h 0,000 mm 0,0 UV-I 0 W/m 12,7 C 13,3 C 5,8 km/h (2 Bft) 95,68 %
28.06.2018 02:00 13,3 C 21,1 C 96 % 1017,9 hPa 1,0 l/m 3,2 km/h (1 Bft) W-SW 0,00 h 0,000 mm 0,0 UV-I 0 W/m 12,6 C 13,3 C 5,0 km/h (1 Bft) 99,20 %
28.06.2018 03:00 13,3 C 21,1 C 97 % 1017,1 hPa 0,8 l/m 4,3 km/h (1 Bft) W 0,00 h 0,000 mm 0,0 UV-I 0 W/m 12,8 C 13,2 C 6,9 km/h (2 Bft) 97,82 %
28.06.2018 04:00 13,3 C 21,1 C 97 % 1016,5 hPa 4,6 l/m 6,1 km/h (2 Bft) W 0,00 h 0,000 mm 0,0 UV-I 0 W/m 12,8 C 12,9 C 9,9 km/h (2 Bft) 98,69 %
28.06.2018 05:00 13,1 C 21,1 C 97 % 1015,9 hPa 2,2 l/m 8,8 km/h (2 Bft) W 0,00 h 0,000 mm 0,0 UV-I 8 W/m 12,6 C 11,7 C 13,6 km/h (3 Bft) 95,92 %
28.06.2018 06:00 13,1 C 20,8 C 97 % 1015,6 hPa 1,2 l/m 8,1 km/h (2 Bft) W 0,00 h 0,000 mm 0,0 UV-I 17 W/m 12,6 C 12,0 C 12,8 km/h (3 Bft) 99,24 %
28.06.2018 07:00 13,2 C 20,6 C 97 % 1015,3 hPa 2,2 l/m 8,3 km/h (2 Bft) W 0,00 h 0,000 mm 0,0 UV-I 26 W/m 12,7 C 12,1 C 13,0 km/h (3 Bft) 97,66 %
28.06.2018 08:00 13,3 C 20,6 C 97 % 1015,2 hPa 3,0 l/m 9,3 km/h (2 Bft) W 0,00 h 0,025 mm 0,0 UV-I 41 W/m 12,8 C 11,6 C 13,9 km/h (3 Bft) 98,98 %
28.06.2018 09:00 13,4 C 20,6 C 97 % 1014,6 hPa 3,8 l/m 13,7 km/h (3 Bft) W 0,00 h 0,026 mm 0,0 UV-I 48 W/m 12,9 C 9,8 C 19,4 km/h (3 Bft) 95,75 %
28.06.2018 10:00 13,6 C 20,6 C 97 % 1013,7 hPa 3,4 l/m 15,4 km/h (3 Bft) W 0,00 h 0,025 mm 0,5 UV-I 80 W/m 13,2 C 9,4 C 22,6 km/h (4 Bft) 99,14 %
28.06.2018 11:00 13,9 C 20,6 C 97 % 1013,1 hPa 2,4 l/m 12,0 km/h (2 Bft) W 0,00 h 0,051 mm 0,5 UV-I 59 W/m 13,4 C 11,0 C 18,7 km/h (3 Bft) 97,76 %
28.06.2018 12:00 14,2 C 20,0 C 97 % 1012,9 hPa 1,6 l/m 11,8 km/h (2 Bft) W 0,00 h 0,025 mm 0,6 UV-I 72 W/m 13,8 C 11,6 C 18,0 km/h (3 Bft) 98,72 %
28.06.2018 13:00 14,6 C 20,0 C 97 % 1012,8 hPa 1,6 l/m 11,0 km/h (2 Bft) W 0,00 h 0,051 mm 0,6 UV-I 80 W/m 14,1 C 12,3 C 16,0 km/h (3 Bft) 95,62 %
28.06.2018 14:00 15,0 C 20,0 C 97 % 1012,6 hPa 0,6 l/m 8,0 km/h (2 Bft) W-SW 0,00 h 0,051 mm 0,8 UV-I 108 W/m 14,5 C 14,0 C 12,6 km/h (3 Bft) 99,03 %
28.06.2018 15:00 15,3 C 20,0 C 97 % 1012,6 hPa 0,2 l/m 9,2 km/h (2 Bft) W 0,00 h 0,051 mm 0,8 UV-I 113 W/m 14,8 C 13,8 C 13,6 km/h (3 Bft) 97,63 %
28.06.2018 16:00 15,7 C 20,0 C 96 % 1012,5 hPa 0,0 l/m 7,6 km/h (2 Bft) W 0,00 h 0,051 mm 0,7 UV-I 107 W/m 15,2 C 15,0 C 11,3 km/h (2 Bft) 99,17 %
28.06.2018 17:00 16,0 C 20,0 C 96 % 1012,5 hPa 0,0 l/m 5,7 km/h (1 Bft) W-SW 0,00 h 0,050 mm 0,0 UV-I 69 W/m 15,4 C 15,9 C 8,9 km/h (2 Bft) 95,45 %
28.06.2018 18:00 16,3 C 20,0 C 95 % 1012,6 hPa 0,0 l/m 3,5 km/h (1 Bft) W 0,00 h 0,051 mm 0,0 UV-I 74 W/m 15,6 C 16,3 C 5,5 km/h (1 Bft) 98,84 %
28.06.2018 19:00 16,2 C 20,0 C 96 % 1012,9 hPa 0,0 l/m 2,9 km/h (1 Bft) W 0,00 h 0,051 mm 0,0 UV-I 34 W/m 15,5 C 16,2 C 4,7 km/h (1 Bft) 97,98 %
28.06.2018 20:00 16,0 C 20,0 C 96 % 1013,0 hPa 0,2 l/m 2,8 km/h (1 Bft) W 0,00 h 0,025 mm 0,0 UV-I 15 W/m 15,3 C 16,0 C 5,1 km/h (1 Bft) 99,03 %
28.06.2018 21:00 15,8 C 20,0 C 97 % 1013,3 hPa 0,0 l/m 3,6 km/h (1 Bft) W 0,00 h 0,000 mm 0,0 UV-I 2 W/m 15,3 C 15,8 C 5,4 km/h (1 Bft) 95,31 %
28.06.2018 22:00 15,6 C 20,0 C 97 % 1013,7 hPa 0,0 l/m 5,8 km/h (2 Bft) W 0,00 h 0,000 mm 0,0 UV-I 0 W/m 15,1 C 15,4 C 8,9 km/h (2 Bft) 98,77 %
28.06.2018 23:00 15,5 C 20,0 C 97 % 1013,8 hPa 0,0 l/m 7,3 km/h (2 Bft) W 0,00 h 0,000 mm 0,0 UV-I 0 W/m 15,0 C 14,8 C 11,1 km/h (2 Bft) 98,23 %
29.06.2018 00:00 15,3 C 20,0 C 97 % 1013,6 hPa 0,0 l/m 8,1 km/h (2 Bft) W 0,00 h 0,000 mm 0,0 UV-I 0 W/m 14,8 C 14,3 C 12,1 km/h (2 Bft) 99,19 %
29.06.2018 01:00 15,3 C 20,0 C 97 % 1013,3 hPa 0,4 l/m 8,1 km/h (2 Bft) W 0,00 h 0,000 mm 0,0 UV-I 0 W/m 14,8 C 14,4 C 11,7 km/h (2 Bft) 95,69 %
29.06.2018 02:00 15,3 C 20,0 C 97 % 1013,2 hPa 0,2 l/m 10,5 km/h (2 Bft) W 0,00 h 0,000 mm 0,0 UV-I 0 W/m 14,9 C 13,3 C 14,4 km/h (3 Bft) 98,89 %
29.06.2018 03:00 15,3 C 20,0 C 98 % 1012,8 hPa 0,4 l/m 10,3 km/h (2 Bft) W 0,00 h 0,000 mm 0,0 UV-I 0 W/m 14,9 C 13,4 C 14,5 km/h (3 Bft) 97,88 %
29.06.2018 04:00 15,2 C 19,4 C 97 % 1012,6 hPa 2,0 l/m 11,2 km/h (2 Bft) W 0,00 h 0,000 mm 0,0 UV-I 0 W/m 14,8 C 12,9 C 15,4 km/h (3 Bft) 98,97 %
29.06.2018 05:00 15,2 C 19,4 C 98 % 1012,4 hPa 2,0 l/m 10,5 km/h (2 Bft) W-SW 0,00 h 0,000 mm 0,0 UV-I 6 W/m 14,9 C 13,1 C 15,1 km/h (3 Bft) 95,80 %
29.06.2018 06:00 15,1 C 19,4 C 98 % 1012,2 hPa 0,2 l/m 10,9 km/h (2 Bft) W-SW 0,00 h 0,000 mm 0,0 UV-I 10 W/m 14,8 C 12,9 C 15,7 km/h (3 Bft) 99,03 %
29.06.2018 07:00 15,2 C 19,4 C 98 % 1012,2 hPa 0,8 l/m 12,6 km/h (3 Bft) W-SW 0,00 h 0,000 mm 0,0 UV-I 16 W/m 14,8 C 12,3 C 18,2 km/h (3 Bft) 97,71 %
29.06.2018 08:00 15,2 C 19,4 C 97 % 1012,6 hPa 0,6 l/m 9,3 km/h (2 Bft) W 0,00 h 0,000 mm 0,0 UV-I 16 W/m 14,7 C 13,7 C 14,0 km/h (3 Bft) 99,33 %
29.06.2018 09:00 15,3 C 19,4 C 97 % 1012,8 hPa 0,0 l/m 12,2 km/h (2 Bft) W-SW 0,00 h 0,000 mm 0,5 UV-I 54 W/m 14,9 C 12,7 C 17,0 km/h (3 Bft) 95,77 %
29.06.2018 10:00 15,7 C 19,4 C 97 % 1013,0 hPa 0,0 l/m 12,8 km/h (3 Bft) SW 0,00 h 0,025 mm 1,2 UV-I 131 W/m 15,2 C 12,8 C 18,1 km/h (3 Bft) 98,99 %
29.06.2018 11:00 16,3 C 19,4 C 95 % 1013,0 hPa 0,4 l/m 16,4 km/h (3 Bft) W-SW 0,00 h 0,077 mm 1,3 UV-I 190 W/m 15,5 C 12,5 C 22,8 km/h (4 Bft) 97,82 %
29.06.2018 12:00 16,4 C 19,4 C 95 % 1013,0 hPa 0,2 l/m 16,9 km/h (3 Bft) W-SW 0,03 h 0,101 mm 1,7 UV-I 234 W/m 15,6 C 12,4 C 23,7 km/h (4 Bft) 99,52 %
29.06.2018 13:00 18,0 C 19,5 C 92 % 1012,9 hPa 0,0 l/m 17,5 km/h (3 Bft) W-SW 0,80 h 0,127 mm 4,4 UV-I 594 W/m 16,8 C 14,3 C 24,1 km/h (4 Bft) 95,79 %
29.06.2018 14:00 19,9 C 20,0 C 86 % 1012,8 hPa 0,0 l/m 18,2 km/h (3 Bft) W 1,00 h 0,356 mm 4,8 UV-I 845 W/m 17,5 C 16,4 C 26,1 km/h (4 Bft) 98,05 %
29.06.2018 15:00 20,1 C 20,0 C 84 % 1012,4 hPa 0,0 l/m 18,0 km/h (3 Bft) W-SW 0,28 h 0,482 mm 2,0 UV-I 330 W/m 17,4 C 16,7 C 25,6 km/h (4 Bft) 97,97 %
29.06.2018 16:00 20,5 C 20,5 C 82 % 1011,9 hPa 0,0 l/m 20,2 km/h (4 Bft) W-SW 0,25 h 0,229 mm 1,7 UV-I 349 W/m 17,3 C 16,8 C 28,3 km/h (4 Bft) 99,34 %
29.06.2018 17:00 20,6 C 20,6 C 81 % 1011,6 hPa 0,0 l/m 19,0 km/h (3 Bft) W-SW 0,12 h 0,254 mm 1,1 UV-I 230 W/m 17,2 C 17,2 C 26,9 km/h (4 Bft) 97,06 %
29.06.2018 18:00 18,8 C 20,6 C 90 % 1011,8 hPa 2,6 l/m 12,9 km/h (3 Bft) W-SW 0,00 h 0,178 mm 0,0 UV-I 62 W/m 17,1 C 16,4 C 18,5 km/h (3 Bft) 97,48 %
29.06.2018 19:00 18,2 C 20,6 C 93 % 1011,9 hPa 0,0 l/m 14,2 km/h (3 Bft) SW 0,00 h 0,051 mm 0,0 UV-I 47 W/m 17,0 C 15,3 C 20,2 km/h (4 Bft) 97,89 %
29.06.2018 20:00 18,0 C 20,6 C 92 % 1012,0 hPa 0,0 l/m 11,4 km/h (2 Bft) SW 0,05 h 0,050 mm 0,0 UV-I 20 W/m 16,7 C 15,9 C 16,1 km/h (3 Bft) 98,84 %
29.06.2018 21:00 17,8 C 20,4 C 92 % 1012,2 hPa 0,0 l/m 12,2 km/h (2 Bft) W-SW 0,00 h 0,026 mm 0,0 UV-I 5 W/m 16,4 C 15,4 C 16,8 km/h (3 Bft) 96,67 %
29.06.2018 22:00 17,6 C 20,0 C 92 % 1012,6 hPa 0,0 l/m 8,8 km/h (2 Bft) W-SW 0,00 h 0,025 mm 0,0 UV-I 0 W/m 16,2 C 16,5 C 12,6 km/h (3 Bft) 96,87 %
29.06.2018 23:00 17,6 C 20,0 C 92 % 1012,6 hPa 0,0 l/m 9,7 km/h (2 Bft) W-SW 0,00 h 0,000 mm 0,0 UV-I 0 W/m 16,3 C 16,1 C 13,8 km/h (3 Bft) 97,89 %
30.06.2018 00:00 17,7 C 20,0 C 92 % 1012,5 hPa 0,0 l/m 7,3 km/h (2 Bft) W 0,00 h 0,000 mm 0,0 UV-I 0 W/m 16,3 C 17,1 C 10,8 km/h (2 Bft) 98,54 %
30.06.2018 01:00 16,9 C 20,0 C 94 % 1012,1 hPa 0,0 l/m 4,4 km/h (1 Bft) W-SW 0,00 h 0,000 mm 0,0 UV-I 0 W/m 15,9 C 16,9 C 6,0 km/h (2 Bft) 97,03 %
30.06.2018 02:00 16,1 C 20,0 C 95 % 1011,8 hPa 0,0 l/m 4,7 km/h (1 Bft) W-SW 0,00 h 0,000 mm 0,0 UV-I 0 W/m 15,4 C 16,0 C 6,9 km/h (2 Bft) 97,92 %
30.06.2018 03:00 15,5 C 20,0 C 96 % 1011,6 hPa 0,0 l/m 4,2 km/h (1 Bft) W-SW 0,00 h 0,000 mm 0,0 UV-I 0 W/m 14,9 C 15,4 C 6,0 km/h (2 Bft) 98,37 %
30.06.2018 04:00 15,9 C 20,0 C 96 % 1011,5 hPa 0,0 l/m 5,0 km/h (1 Bft) SW 0,00 h 0,000 mm 0,0 UV-I 4 W/m 15,3 C 15,8 C 7,1 km/h (2 Bft) 99,22 %
30.06.2018 05:00 16,1 C 20,0 C 96 % 1011,4 hPa 0,0 l/m 3,5 km/h (1 Bft) SW 0,02 h 0,000 mm 0,0 UV-I 12 W/m 15,4 C 16,1 C 5,2 km/h (1 Bft) 96,35 %
30.06.2018 06:00 16,7 C 20,0 C 95 % 1011,2 hPa 0,0 l/m 3,6 km/h (1 Bft) SW 0,17 h 0,000 mm 0,0 UV-I 80 W/m 16,0 C 16,7 C 5,2 km/h (1 Bft) 98,87 %
30.06.2018 07:00 18,0 C 20,0 C 92 % 1011,1 hPa 0,0 l/m 4,9 km/h (1 Bft) W 0,57 h 0,051 mm 0,7 UV-I 246 W/m 16,7 C 17,9 C 7,3 km/h (2 Bft) 98,25 %
30.06.2018 08:00 19,4 C 20,0 C 87 % 1011,4 hPa 0,0 l/m 5,2 km/h (1 Bft) W 0,73 h 0,127 mm 1,4 UV-I 430 W/m 17,1 C 19,3 C 8,9 km/h (2 Bft) 98,97 %
30.06.2018 09:00 21,1 C 20,2 C 78 % 1011,4 hPa 0,0 l/m 5,2 km/h (1 Bft) W 1,00 h 0,228 mm 2,7 UV-I 639 W/m 17,0 C 20,9 C 8,2 km/h (2 Bft) 96,21 %
30.06.2018 10:00 22,4 C 20,6 C 69 % 1011,6 hPa 0,0 l/m 6,1 km/h (2 Bft) N-NO 0,98 h 0,381 mm 3,9 UV-I 722 W/m 16,4 C 22,0 C 9,4 km/h (2 Bft) 98,43 %
30.06.2018 11:00 23,3 C 20,8 C 65 % 1011,7 hPa 0,0 l/m 8,3 km/h (2 Bft) NO 0,65 h 0,432 mm 4,4 UV-I 694 W/m 16,3 C 22,6 C 12,2 km/h (2 Bft) 98,79 %
30.06.2018 12:00 22,5 C 21,1 C 68 % 1011,8 hPa 0,0 l/m 14,1 km/h (3 Bft) NO 0,45 h 0,457 mm 4,1 UV-I 614 W/m 16,2 C 20,4 C 19,0 km/h (3 Bft) 98,76 %
30.06.2018 13:00 22,4 C 21,1 C 66 % 1011,7 hPa 0,0 l/m 13,6 km/h (3 Bft) NO 0,28 h 0,432 mm 3,8 UV-I 437 W/m 15,7 C 20,5 C 17,6 km/h (3 Bft) 97,42 %
30.06.2018 14:00 22,0 C 21,2 C 64 % 1011,9 hPa 0,0 l/m 11,0 km/h (2 Bft) O-NO 0,02 h 0,356 mm 2,8 UV-I 308 W/m 14,9 C 20,6 C 15,5 km/h (3 Bft) 98,01 %
30.06.2018 15:00 22,9 C 21,7 C 57 % 1011,8 hPa 0,0 l/m 9,1 km/h (2 Bft) NO 0,53 h 0,254 mm 3,8 UV-I 557 W/m 14,0 C 22,1 C 13,2 km/h (3 Bft) 98,70 %
30.06.2018 16:00 23,8 C 21,7 C 48 % 1011,6 hPa 0,0 l/m 10,8 km/h (2 Bft) NO 1,00 h 0,406 mm 3,1 UV-I 643 W/m 12,1 C 22,7 C 15,1 km/h (3 Bft) 98,41 %
30.06.2018 17:00 23,7 C 22,1 C 42 % 1011,9 hPa 0,0 l/m 12,7 km/h (3 Bft) NO 1,00 h 0,483 mm 1,9 UV-I 491 W/m 10,1 C 22,2 C 17,5 km/h (3 Bft) 98,27 %
30.06.2018 18:00 22,6 C 22,2 C 42 % 1012,3 hPa 0,0 l/m 15,0 km/h (3 Bft) NO 1,00 h 0,406 mm 0,9 UV-I 332 W/m 8,9 C 20,5 C 20,3 km/h (4 Bft) 96,25 %
30.06.2018 19:00 20,9 C 22,0 C 46 % 1012,7 hPa 0,0 l/m 12,6 km/h (3 Bft) O-NO 0,72 h 0,330 mm 0,5 UV-I 147 W/m 8,9 C 18,9 C 17,1 km/h (3 Bft) 99,30 %
30.06.2018 20:00 18,4 C 21,7 C 53 % 1013,0 hPa 0,0 l/m 9,0 km/h (2 Bft) NO 0,48 h 0,178 mm 0,0 UV-I 34 W/m 8,7 C 17,3 C 12,6 km/h (3 Bft) 98,13 %
30.06.2018 21:00 16,3 C 21,7 C 62 % 1013,5 hPa 0,0 l/m 4,0 km/h (1 Bft) NO 0,00 h 0,076 mm 0,0 UV-I 7 W/m 9,0 C 16,3 C 5,6 km/h (1 Bft) 98,44 %
30.06.2018 22:00 15,6 C 21,6 C 65 % 1014,2 hPa 0,0 l/m 4,0 km/h (1 Bft) O 0,00 h 0,026 mm 0,0 UV-I 0 W/m 9,0 C 15,6 C 5,7 km/h (1 Bft) 96,26 %
30.06.2018 23:00 14,4 C 21,1 C 69 % 1014,8 hPa 0,0 l/m 7,8 km/h (2 Bft) O-NO 0,00 h 0,025 mm 0,0 UV-I 0 W/m 8,8 C 13,4 C 10,9 km/h (2 Bft) 99,42 %
01.07.2018 00:00 13,8 C 21,1 C 66 % 1015,0 hPa 0,0 l/m 10,6 km/h (2 Bft) O-NO 0,00 h 0,000 mm 0,0 UV-I 0 W/m 7,6 C 11,6 C 15,1 km/h (3 Bft) 98,27 %
01.07.2018 01:00 12,4 C 20,9 C 70 % 1015,3 hPa 0,0 l/m 8,1 km/h (2 Bft) O-NO 0,00 h 0,051 mm 0,0 UV-I 0 W/m 7,1 C 11,3 C 12,0 km/h (2 Bft) 97,01 %
01.07.2018 02:00 11,1 C 20,6 C 76 % 1015,4 hPa 0,0 l/m 5,3 km/h (1 Bft) O-NO 0,00 h 0,025 mm 0,0 UV-I 0 W/m 7,0 C 11,0 C 7,4 km/h (2 Bft) 97,72 %
01.07.2018 03:00 10,2 C 20,6 C 80 % 1015,3 hPa 0,0 l/m 4,0 km/h (1 Bft) O 0,00 h 0,026 mm 0,0 UV-I 0 W/m 6,8 C 10,2 C 5,5 km/h (1 Bft) 99,51 %
01.07.2018 04:00 9,8 C 20,6 C 81 % 1015,2 hPa 0,0 l/m 3,9 km/h (1 Bft) O 0,00 h 0,025 mm 0,0 UV-I 5 W/m 6,6 C 9,8 C 5,4 km/h (1 Bft) 97,16 %
01.07.2018 05:00 9,5 C 20,3 C 82 % 1015,3 hPa 0,0 l/m 3,8 km/h (1 Bft) O 0,67 h 0,000 mm 0,0 UV-I 35 W/m 6,6 C 9,5 C 5,6 km/h (1 Bft) 98,44 %
01.07.2018 06:00 10,2 C 20,0 C 81 % 1015,5 hPa 0,0 l/m 4,5 km/h (1 Bft) O 1,00 h 0,025 mm 0,0 UV-I 155 W/m 7,2 C 10,2 C 6,4 km/h (2 Bft) 99,89 %
01.07.2018 07:00 12,6 C 20,0 C 71 % 1015,8 hPa 0,0 l/m 7,7 km/h (2 Bft) O-NO 1,00 h 0,077 mm 0,7 UV-I 316 W/m 7,5 C 11,7 C 11,0 km/h (2 Bft) 96,40 %
01.07.2018 08:00 14,9 C 20,0 C 61 % 1016,0 hPa 0,0 l/m 11,0 km/h (2 Bft) O-NO 1,00 h 0,177 mm 1,5 UV-I 487 W/m 7,3 C 12,6 C 15,5 km/h (3 Bft) 98,70 %
01.07.2018 09:00 16,7 C 20,3 C 48 % 1015,9 hPa 0,0 l/m 14,1 km/h (3 Bft) O-NO 1,00 h 0,305 mm 2,7 UV-I 642 W/m 5,7 C 13,6 C 19,4 km/h (3 Bft) 99,39 %
01.07.2018 10:00 17,7 C 20,6 C 46 % 1015,8 hPa 0,0 l/m 14,4 km/h (3 Bft) O-NO 1,00 h 0,432 mm 4,1 UV-I 769 W/m 5,9 C 14,7 C 19,7 km/h (3 Bft) 97,16 %
01.07.2018 11:00 18,8 C 20,6 C 43 % 1015,8 hPa 0,0 l/m 12,7 km/h (3 Bft) O 1,00 h 0,533 mm 4,9 UV-I 862 W/m 6,1 C 16,5 C 17,8 km/h (3 Bft) 98,27 %
01.07.2018 12:00 19,4 C 21,0 C 41 % 1015,8 hPa 0,0 l/m 10,5 km/h (2 Bft) O 1,00 h 0,585 mm 6,1 UV-I 912 W/m 5,8 C 17,8 C 15,1 km/h (3 Bft) 98,25 %
01.07.2018 13:00 20,2 C 21,1 C 41 % 1015,6 hPa 0,0 l/m 10,3 km/h (2 Bft) NO 1,00 h 0,609 mm 6,0 UV-I 911 W/m 6,6 C 18,9 C 14,9 km/h (3 Bft) 99,52 %
01.07.2018 14:00 20,9 C 21,7 C 42 % 1015,4 hPa 0,0 l/m 9,3 km/h (2 Bft) NO 1,00 h 0,610 mm 5,6 UV-I 865 W/m 7,3 C 19,8 C 13,6 km/h (3 Bft) 98,14 %
01.07.2018 15:00 21,4 C 22,0 C 41 % 1015,1 hPa 0,0 l/m 8,7 km/h (2 Bft) NO 1,00 h 0,584 mm 4,5 UV-I 776 W/m 7,7 C 20,6 C 13,0 km/h (3 Bft) 96,88 %
01.07.2018 16:00 21,8 C 22,2 C 41 % 1014,9 hPa 0,0 l/m 8,9 km/h (2 Bft) NO 1,00 h 0,533 mm 3,1 UV-I 662 W/m 7,9 C 20,8 C 13,1 km/h (3 Bft) 97,16 %
01.07.2018 17:00 21,7 C 22,2 C 40 % 1014,8 hPa 0,0 l/m 10,4 km/h (2 Bft) O-NO 1,00 h 0,458 mm 1,9 UV-I 513 W/m 7,5 C 20,4 C 14,7 km/h (3 Bft) 98,73 %
01.07.2018 18:00 21,2 C 22,2 C 40 % 1014,8 hPa 0,0 l/m 10,2 km/h (2 Bft) NO 0,97 h 0,406 mm 0,9 UV-I 312 W/m 7,1 C 20,0 C 14,4 km/h (3 Bft) 98,96 %
01.07.2018 19:00 19,9 C 22,2 C 43 % 1015,1 hPa 0,0 l/m 12,1 km/h (2 Bft) NO 1,00 h 0,279 mm 0,5 UV-I 171 W/m 7,1 C 18,0 C 15,9 km/h (3 Bft) 98,20 %
01.07.2018 20:00 17,7 C 22,2 C 51 % 1015,4 hPa 0,0 l/m 9,2 km/h (2 Bft) NO 0,92 h 0,204 mm 0,0 UV-I 56 W/m 7,4 C 16,4 C 12,3 km/h (3 Bft) 97,34 %
01.07.2018 21:00 15,2 C 21,9 C 60 % 1015,9 hPa 0,0 l/m 6,8 km/h (2 Bft) NO 0,00 h 0,101 mm 0,0 UV-I 7 W/m 7,4 C 14,8 C 9,4 km/h (2 Bft) 97,66 %
01.07.2018 22:00 14,5 C 21,7 C 60 % 1016,2 hPa 0,0 l/m 6,7 km/h (2 Bft) O-NO 0,00 h 0,051 mm 0,0 UV-I 0 W/m 6,8 C 14,1 C 10,0 km/h (2 Bft) 99,31 %
01.07.2018 23:00 13,4 C 21,7 C 67 % 1016,2 hPa 0,0 l/m 7,6 km/h (2 Bft) O-NO 0,00 h 0,051 mm 0,0 UV-I 0 W/m 7,3 C 12,6 C 10,8 km/h (2 Bft) 97,92 %
Min-Datum _ 01.07.18 26.06.18 01.07.18 30.06.18 - 25.06.18 - - - - - 01.07.18 25.06.18 25.06.18 28.06.18
_ Min-Zeit 04:52 04:18 16:39 06:45 - 03:23 - - - - - 09:43 03:00 03:23 00:02
Minimum _ 9,4 C 19,4 C 36 % 1011,0 hPa - 0,0 km/h (0 Bft) - - - - - 4,2 C 6,3 C 0,0 km/h (0 Bft) 5,26 %
Max-Datum _ 30.06.18 27.06.18 29.06.18 25.06.18 26.06.18 27.06.18 - 01.07.18 01.07.18 26.06.18 27.06.18 29.06.18 30.06.18 26.06.18 25.06.18
_ Max-Zeit 11:49 15:09 02:29 22:21 20:30 12:31 - 12:54 14:01 13:27 14:16 14:38 16:23 20:28 00:04
Maximum _ 24,1 C 22,2 C 98 % 1021,4 hPa 5,2 l/m 31,6 km/h
NO (5 Bft)
- 0,07 h 0,610 mm 7,3 UV-I 1188 W/m 18,1 C 23,9 C 40,2 km/h
W-SW (6 Bft)
100,00 %
Durchschnitt _ 16,3 C 20,7 C 79 % 1016,1 hPa #64,2 l/m 7,8 km/h (2 Bft) W-SW #45:55 h #24,206 mm 2,5 UV-I 286 W/m 12,1 C 15,3 C 11,4 km/h (2 Bft) 97,90 %